Time;durP1;ratioP1;P1;durP2;ratioP2;P2;SDS_P1;SDS_P2;PMS_P1;PMS_P2;Temp;Humidity;BMP_temperature;BMP_pressure;BME280_temperature;BME280_humidity;BME280_pressure;Samples;Min_cycle;Max_cycle;Signal;HPM_P1;HPM_P2
2023/07/19 00:02:06;;;;;;;8.27;5.78;;;;;18.90;96118.00;;;;8277711;28;20268;-70
2023/07/19 00:06:12;;;;;;;10.90;5.90;;;;;18.80;96122.00;;;;8286371;28;20279;-71
2023/07/19 00:10:16;;;;;;;9.27;5.68;;;;;18.60;96112.00;;;;8276701;28;20713;-68
2023/07/19 00:14:26;;;;;;;9.32;5.97;;;;;18.60;96108.00;;;;8279028;28;20241;-67
2023/07/19 00:18:31;;;;;;;9.20;6.15;;;;;18.60;96107.00;;;;8284277;28;20195;-69
2023/07/19 00:22:36;;;;;;;12.45;5.53;;;;;18.60;96102.00;;;;8274588;28;20246;-69
2023/07/19 00:26:39;;;;;;;9.90;6.28;;;;;18.60;96097.00;;;;8280526;28;20261;-69
2023/07/19 00:30:43;;;;;;;13.60;6.20;;;;;18.50;96091.00;;;;8274314;28;20202;-71
2023/07/19 00:34:51;;;;;;;8.68;5.93;;;;;18.40;96095.00;;;;8274303;28;20866;-71
2023/07/19 00:38:55;;;;;;;11.13;6.25;;;;;18.30;96099.00;;;;8277065;28;20194;-68
2023/07/19 00:43:00;;;;;;;10.65;6.43;;;;;18.20;96091.00;;;;8270210;28;20209;-69
2023/07/19 00:47:04;;;;;;;9.02;6.05;;;;;18.10;96091.00;;;;8270361;28;20230;-68
2023/07/19 00:51:10;;;;;;;14.38;6.70;;;;;18.10;96099.00;;;;8271848;28;20229;-69
2023/07/19 00:55:20;;;;;;;12.40;6.22;;;;;18.10;96097.00;;;;8271401;28;20209;-71
2023/07/19 00:59:25;;;;;;;10.95;5.72;;;;;18.20;96101.00;;;;8275697;28;20309;-68
2023/07/19 01:03:28;;;;;;;12.18;5.85;;;;;18.30;96103.00;;;;8282004;28;20269;-68
2023/07/19 01:07:31;;;;;;;10.88;6.20;;;;;18.40;96104.00;;;;8270087;28;20286;-70
2023/07/19 01:11:35;;;;;;;12.20;5.55;;;;;18.60;96107.00;;;;8272651;28;20205;-70
2023/07/19 01:15:45;;;;;;;11.00;5.90;;;;;18.70;96101.00;;;;8274120;28;20803;-68
2023/07/19 01:19:48;;;;;;;13.20;6.22;;;;;18.80;96091.00;;;;8283672;28;20410;-69
2023/07/19 01:23:54;;;;;;;13.45;5.82;;;;;18.80;96099.00;;;;8281743;28;20300;-70
2023/07/19 01:27:57;;;;;;;8.32;6.05;;;;;18.90;96098.00;;;;8278632;28;20242;-71
2023/07/19 01:32:00;;;;;;;12.50;6.03;;;;;18.90;96090.00;;;;8282757;28;20317;-69
2023/07/19 01:36:07;;;;;;;11.10;5.95;;;;;19.00;96094.00;;;;8278388;28;20258;-69
2023/07/19 01:40:13;;;;;;;10.90;5.47;;;;;19.00;96094.00;;;;8276569;28;20301;-71
2023/07/19 01:44:19;;;;;;;9.18;6.20;;;;;19.10;96100.00;;;;8284996;28;20912;-68
2023/07/19 01:48:28;;;;;;;9.20;5.90;;;;;19.10;96092.00;;;;8279260;28;20206;-70
2023/07/19 01:52:36;;;;;;;8.73;5.15;;;;;19.10;96098.00;;;;8285234;28;20541;-70
2023/07/19 01:56:41;;;;;;;9.45;6.00;;;;;19.20;96099.00;;;;8279090;28;20690;-72
2023/07/19 02:00:45;;;;;;;10.52;6.05;;;;;19.20;96083.00;;;;8283758;28;20838;-68
2023/07/19 02:04:48;;;;;;;10.05;6.18;;;;;19.10;96092.00;;;;8279639;28;20242;-70
2023/07/19 02:08:51;;;;;;;9.63;6.35;;;;;19.00;96078.00;;;;8282994;28;20209;-74
2023/07/19 02:12:58;;;;;;;13.35;6.40;;;;;19.00;96089.00;;;;8290312;28;20285;-69
2023/07/19 02:17:03;;;;;;;10.52;6.25;;;;;19.00;96081.00;;;;8288048;28;20209;-69
2023/07/19 02:21:06;;;;;;;12.10;6.38;;;;;19.00;96088.00;;;;8284153;28;20194;-70
2023/07/19 02:25:16;;;;;;;10.73;6.20;;;;;19.10;96090.00;;;;8286045;28;20233;-71
2023/07/19 02:29:22;;;;;;;10.27;5.93;;;;;19.00;96086.00;;;;8287814;28;20293;-71
2023/07/19 02:33:26;;;;;;;12.57;6.13;;;;;18.90;96087.00;;;;8273778;28;20972;-71
2023/07/19 02:37:30;;;;;;;8.68;5.80;;;;;19.00;96089.00;;;;8277110;28;20293;-69
2023/07/19 02:41:33;;;;;;;10.82;5.78;;;;;19.00;96099.00;;;;8276579;28;20205;-69
2023/07/19 02:45:38;;;;;;;11.35;6.18;;;;;19.10;96107.00;;;;8283690;28;20254;-70
2023/07/19 02:49:41;;;;;;;10.35;6.40;;;;;19.10;96103.00;;;;8282207;28;20735;-71
2023/07/19 02:53:44;;;;;;;11.48;6.25;;;;;19.20;96097.00;;;;8289573;28;20261;-70
2023/07/19 02:57:50;;;;;;;14.15;6.13;;;;;19.20;96090.00;;;;8284369;28;20234;-70
2023/07/19 03:01:56;;;;;;;10.75;5.60;;;;;19.20;96084.00;;;;8301296;23;20238;-69
2023/07/19 03:06:01;;;;;;;15.90;5.90;;;;;19.20;96085.00;;;;8255995;28;20575;-69
2023/07/19 03:10:05;;;;;;;13.30;5.78;;;;;19.20;96083.00;;;;8249881;28;20634;-69
2023/07/19 03:14:08;;;;;;;16.50;6.60;;;;;19.20;96098.00;;;;8235620;28;20203;-70
2023/07/19 03:18:15;;;;;;;10.85;6.10;;;;;19.20;96114.00;;;;8256200;28;20202;-70
2023/07/19 03:22:18;;;;;;;12.10;6.28;;;;;19.30;96103.00;;;;8251502;28;20309;-72
2023/07/19 03:26:24;;;;;;;13.45;6.68;;;;;19.00;96078.00;;;;8252272;28;20238;-70
2023/07/19 03:30:27;;;;;;;14.38;7.00;;;;;18.80;96095.00;;;;8254555;28;20291;-65
2023/07/19 03:34:31;;;;;;;28.15;7.78;;;;;18.60;96123.00;;;;8255637;28;20230;-65
2023/07/19 03:38:38;;;;;;;21.95;8.02;;;;;18.40;96121.00;;;;8230931;28;20206;-66
2023/07/19 03:42:49;;;;;;;22.35;9.38;;;;;18.30;96104.00;;;;8255575;28;20237;-68
2023/07/19 03:46:52;;;;;;;18.70;8.98;;;;;18.30;96117.00;;;;8253093;28;20322;-63
2023/07/19 03:51:02;;;;;;;24.27;9.43;;;;;18.30;96108.00;;;;8253665;28;20195;-64
2023/07/19 03:55:09;;;;;;;20.13;9.20;;;;;18.40;96118.00;;;;8254668;28;20214;-64
2023/07/19 03:59:13;;;;;;;21.50;9.35;;;;;18.30;96123.00;;;;8254093;28;20210;-69
2023/07/19 04:03:18;;;;;;;22.23;8.77;;;;;18.30;96122.00;;;;8255622;28;20289;-68
2023/07/19 04:07:25;;;;;;;18.88;8.38;;;;;18.40;96111.00;;;;8254730;28;20250;-68
2023/07/19 04:11:29;;;;;;;20.77;8.70;;;;;18.50;96100.00;;;;8256110;28;20211;-69
2023/07/19 04:15:33;;;;;;;20.27;10.40;;;;;18.50;96099.00;;;;8247902;28;20207;-68
2023/07/19 04:19:36;;;;;;;25.75;9.52;;;;;18.50;96099.00;;;;8253800;28;20633;-68
2023/07/19 04:23:41;;;;;;;20.23;8.52;;;;;18.50;96101.00;;;;8254261;28;20285;-68
2023/07/19 04:27:44;;;;;;;22.40;9.68;;;;;18.60;96117.00;;;;8253959;28;20233;-68
2023/07/19 04:31:47;;;;;;;18.20;9.85;;;;;18.70;96110.00;;;;8254303;28;20652;-69
2023/07/19 04:35:51;;;;;;;22.60;9.80;;;;;18.70;96112.00;;;;8253914;28;20207;-68
2023/07/19 04:39:57;;;;;;;18.25;9.82;;;;;18.90;96104.00;;;;8254476;28;20203;-69
2023/07/19 04:44:03;;;;;;;14.82;8.45;;;;;19.00;96101.00;;;;8236598;28;20273;-69
2023/07/19 04:48:11;;;;;;;18.33;8.95;;;;;19.10;96104.00;;;;8253552;28;20261;-70
2023/07/19 04:52:16;;;;;;;22.25;9.82;;;;;19.10;96090.00;;;;8252028;28;20808;-70
2023/07/19 04:56:27;;;;;;;21.10;9.43;;;;;19.20;96090.00;;;;8254219;28;20575;-70
2023/07/19 05:00:30;;;;;;;20.70;10.05;;;;;19.30;96097.00;;;;8254062;28;20238;-70
2023/07/19 05:04:34;;;;;;;20.95;9.98;;;;;19.40;96103.00;;;;8249710;28;20310;-69
2023/07/19 05:08:43;;;;;;;22.15;9.68;;;;;19.60;96105.00;;;;8243979;28;20712;-69
2023/07/19 05:12:48;;;;;;;24.27;10.00;;;;;19.70;96102.00;;;;8251971;28;20229;-69
2023/07/19 05:17:02;;;;;;;17.02;8.85;;;;;19.80;96103.00;;;;8254692;28;20207;-69
2023/07/19 05:21:10;;;;;;;19.65;9.55;;;;;20.00;96116.00;;;;8253118;28;20203;-69
2023/07/19 05:25:13;;;;;;;26.15;8.77;;;;;20.20;96108.00;;;;8252653;28;20237;-69
2023/07/19 05:29:17;;;;;;;22.10;10.18;;;;;20.40;96107.00;;;;8243606;28;20285;-69
2023/07/19 05:33:20;;;;;;;14.88;8.93;;;;;20.70;96105.00;;;;8260026;28;20207;-69
2023/07/19 05:37:28;;;;;;;16.60;9.23;;;;;21.00;96104.00;;;;8255400;28;20318;-70
2023/07/19 05:41:31;;;;;;;16.48;8.98;;;;;21.30;96104.00;;;;8256011;28;20261;-69
2023/07/19 05:45:37;;;;;;;14.70;8.82;;;;;21.40;96100.00;;;;8259496;28;20250;-69
2023/07/19 05:49:40;;;;;;;15.75;8.38;;;;;21.60;96106.00;;;;8260183;28;20257;-70
2023/07/19 05:53:45;;;;;;;14.32;8.60;;;;;21.60;96109.00;;;;8258954;28;20293;-70
2023/07/19 05:57:48;;;;;;;14.73;8.18;;;;;21.70;96105.00;;;;8252027;28;20584;-70
2023/07/19 06:01:53;;;;;;;23.33;9.07;;;;;21.80;96097.00;;;;8240550;28;20309;-70
2023/07/19 06:05:58;;;;;;;16.55;8.55;;;;;22.10;96103.00;;;;8258073;28;20235;-69
2023/07/19 06:10:07;;;;;;;15.07;8.32;;;;;22.60;96103.00;;;;8256419;28;20215;-70
2023/07/19 06:14:12;;;;;;;12.93;7.30;;;;;23.30;96106.00;;;;8240909;28;20211;-69
2023/07/19 06:18:19;;;;;;;17.65;7.68;;;;;23.70;96111.00;;;;8251236;28;20627;-68
2023/07/19 06:22:25;;;;;;;15.00;8.02;;;;;23.80;96111.00;;;;8251070;28;20238;-69
2023/07/19 06:26:34;;;;;;;15.05;7.32;;;;;23.60;96117.00;;;;8255911;28;20246;-68
2023/07/19 06:30:37;;;;;;;10.60;6.07;;;;;23.40;96114.00;;;;8258103;28;20203;-69
2023/07/19 06:34:44;;;;;;;13.18;7.65;;;;;23.50;96118.00;;;;8257281;28;20199;-69
2023/07/19 06:38:51;;;;;;;12.23;6.93;;;;;23.90;96115.00;;;;8258627;28;20206;-69
2023/07/19 06:42:56;;;;;;;12.52;6.88;;;;;24.40;96105.00;;;;8256654;28;20297;-68
2023/07/19 06:47:03;;;;;;;9.27;6.47;;;;;25.20;96111.00;;;;8256591;28;20263;-69
2023/07/19 06:51:11;;;;;;;10.55;6.15;;;;;26.00;96110.00;;;;8257183;28;20722;-67
2023/07/19 06:55:17;;;;;;;9.48;6.57;;;;;26.40;96113.00;;;;8256980;28;20207;-69
2023/07/19 06:59:20;;;;;;;9.70;6.07;;;;;26.20;96118.00;;;;8224830;28;20214;-69
2023/07/19 07:03:28;;;;;;;8.10;5.53;;;;;26.10;96110.00;;;;8256139;28;20231;-67
2023/07/19 07:07:33;;;;;;;12.07;5.78;;;;;25.90;96117.00;;;;8257011;28;20246;-67
2023/07/19 07:11:40;;;;;;;10.98;6.10;;;;;25.60;96104.00;;;;8256874;28;20198;-68
2023/07/19 07:15:43;;;;;;;10.52;5.85;;;;;25.60;96116.00;;;;8253660;28;20388;-66
2023/07/19 07:19:48;;;;;;;8.15;6.03;;;;;26.10;96111.00;;;;8255372;28;20207;-67
2023/07/19 07:23:53;;;;;;;13.13;5.88;;;;;26.50;96108.00;;;;8256117;28;20285;-68
2023/07/19 07:27:56;;;;;;;7.20;5.60;;;;;26.80;96116.00;;;;8254967;28;20723;-67
2023/07/19 07:32:00;;;;;;;8.45;5.50;;;;;27.70;96116.00;;;;8252530;28;20242;-66
2023/07/19 07:36:03;;;;;;;11.82;5.22;;;;;28.10;96118.00;;;;8236837;28;20265;-68
2023/07/19 07:40:10;;;;;;;8.32;5.32;;;;;28.70;96122.00;;;;8254541;28;20728;-66
2023/07/19 07:44:18;;;;;;;7.63;5.55;;;;;29.20;96124.00;;;;8251881;28;20634;-67
2023/07/19 07:48:26;;;;;;;8.20;5.00;;;;;29.30;96119.00;;;;8229140;28;20258;-68
2023/07/19 07:52:32;;;;;;;9.98;4.75;;;;;29.30;96126.00;;;;8248168;28;20271;-65
2023/07/19 07:56:36;;;;;;;10.55;4.47;;;;;29.30;96120.00;;;;8253169;28;20219;-67
2023/07/19 08:00:39;;;;;;;7.93;4.50;;;;;29.20;96127.00;;;;8252396;28;20207;-67
2023/07/19 08:04:47;;;;;;;8.43;4.25;;;;;29.20;96132.00;;;;8253241;28;20230;-65
2023/07/19 08:08:51;;;;;;;6.97;3.97;;;;;29.30;96126.00;;;;8253439;28;20692;-65
2023/07/19 08:12:55;;;;;;;11.93;4.80;;;;;29.60;96127.00;;;;8253790;28;20564;-66
2023/07/19 08:17:02;;;;;;;4.70;4.10;;;;;29.80;96123.00;;;;8245857;28;20211;-65
2023/07/19 08:21:10;;;;;;;9.23;4.47;;;;;29.80;96121.00;;;;8253044;28;20215;-66
2023/07/19 08:25:28;;;;;;;11.20;4.20;;;;;30.10;96126.00;;;;8247918;28;20210;-67
2023/07/19 08:29:32;;;;;;;13.07;4.68;;;;;30.70;96116.00;;;;8245733;28;20231;-66
2023/07/19 08:33:37;;;;;;;7.97;4.30;;;;;31.00;96122.00;;;;8253244;28;20210;-67
2023/07/19 08:37:49;;;;;;;8.32;4.85;;;;;31.40;96121.00;;;;8236108;28;20306;-66
2023/07/19 08:41:52;;;;;;;9.02;4.93;;;;;31.60;96113.00;;;;8252898;28;20199;-66
2023/07/19 08:45:59;;;;;;;5.68;4.22;;;;;31.70;96113.00;;;;8250203;28;20226;-67
2023/07/19 08:50:07;;;;;;;6.38;4.22;;;;;31.70;96110.00;;;;8252091;28;20344;-66
2023/07/19 08:54:11;;;;;;;9.10;4.40;;;;;31.90;96100.00;;;;8251906;28;20222;-66
2023/07/19 08:58:17;;;;;;;7.20;4.05;;;;;32.10;96098.00;;;;8253238;28;20209;-67
2023/07/19 09:02:21;;;;;;;8.25;4.25;;;;;32.60;96091.00;;;;8251809;28;20266;-67
2023/07/19 09:06:30;;;;;;;12.90;4.70;;;;;32.80;96087.00;;;;8257433;28;20245;-67
2023/07/19 09:10:34;;;;;;;5.90;4.40;;;;;33.00;96092.00;;;;8257658;28;20207;-67
2023/07/19 09:14:37;;;;;;;8.27;4.15;;;;;33.10;96083.00;;;;8262492;28;20640;-68
2023/07/19 09:18:42;;;;;;;4.88;4.28;;;;;32.80;96096.00;;;;8261841;28;20226;-67
2023/07/19 09:22:47;;;;;;;8.95;5.28;;;;;32.90;96097.00;;;;8246125;28;20308;-68
2023/07/19 09:26:52;;;;;;;5.97;4.03;;;;;32.00;96092.00;;;;8259871;28;20719;-68
2023/07/19 09:30:57;;;;;;;5.07;3.60;;;;;31.00;96092.00;;;;8262498;28;20203;-68
2023/07/19 09:35:30;;;;;;;12.57;3.83;;;;;31.70;96093.00;;;;8263215;28;20214;-68
2023/07/19 09:39:35;;;;;;;8.43;3.70;;;;;32.70;96101.00;;;;8258681;28;20234;-69
2023/07/19 09:43:43;;;;;;;6.53;4.28;;;;;33.00;96096.00;;;;8257282;28;20285;-69
2023/07/19 09:47:46;;;;;;;8.15;4.20;;;;;33.70;96102.00;;;;8262415;28;20329;-68
2023/07/19 09:51:56;;;;;;;6.40;4.00;;;;;34.40;96100.00;;;;8263029;28;20202;-69
2023/07/19 09:55:59;;;;;;;6.15;3.70;;;;;33.80;96104.00;;;;8258826;28;20230;-69
2023/07/19 10:00:05;;;;;;;6.22;3.90;;;;;34.30;96105.00;;;;8262678;28;20318;-70
2023/07/19 10:04:27;;;;;;;4.53;3.45;;;;;34.60;96102.00;;;;8263131;28;20238;-69
2023/07/19 10:08:32;;;;;;;8.40;4.05;;;;;35.10;96098.00;;;;8255100;28;20222;-69
2023/07/19 10:12:39;;;;;;;4.65;3.55;;;;;35.10;96088.00;;;;8262079;28;20294;-69
2023/07/19 10:16:49;;;;;;;6.38;3.95;;;;;34.50;96087.00;;;;8261545;28;20211;-70
2023/07/19 10:21:10;;;;;;;6.97;3.75;;;;;35.50;96075.00;;;;8256666;28;20210;-70
2023/07/19 10:25:20;;;;;;;6.35;3.58;;;;;36.20;96090.00;;;;8252499;28;20649;-71
2023/07/19 10:29:25;;;;;;;4.03;3.45;;;;;35.80;96078.00;;;;8251520;28;20258;-70
2023/07/19 10:33:31;;;;;;;6.20;2.85;;;;;36.30;96065.00;;;;8256577;28;20203;-70
2023/07/19 10:37:34;;;;;;;4.95;3.25;;;;;36.20;96077.00;;;;8257463;28;20243;-71
2023/07/19 10:41:41;;;;;;;4.88;3.28;;;;;35.90;96062.00;;;;8256674;28;20675;-71
2023/07/19 10:45:45;;;;;;;6.05;3.13;;;;;35.60;96068.00;;;;8239744;28;20250;-71
2023/07/19 10:49:48;;;;;;;4.03;2.85;;;;;36.20;96058.00;;;;8255672;28;20242;-71
2023/07/19 10:53:57;;;;;;;4.70;2.90;;;;;36.20;96059.00;;;;8254618;28;20226;-71
2023/07/19 10:58:06;;;;;;;3.95;3.10;;;;;36.50;96060.00;;;;8255788;28;20892;-72
2023/07/19 11:02:09;;;;;;;6.03;3.17;;;;;36.80;96045.00;;;;8250399;28;20278;-72
2023/07/19 11:06:12;;;;;;;4.45;3.10;;;;;36.90;96055.00;;;;8254574;28;20199;-71
2023/07/19 11:10:16;;;;;;;4.68;3.10;;;;;37.00;96051.00;;;;8248380;28;20265;-72
2023/07/19 11:14:36;;;;;;;3.10;2.90;;;;;37.00;96050.00;;;;8255511;28;20637;-72
2023/07/19 11:18:40;;;;;;;5.55;3.33;;;;;37.40;96043.00;;;;8252319;28;20213;-72
2023/07/19 11:22:44;;;;;;;4.60;2.90;;;;;37.20;96034.00;;;;8254317;28;20203;-72
2023/07/19 11:26:56;;;;;;;5.68;3.38;;;;;37.10;96042.00;;;;8250029;28;20584;-72
2023/07/19 11:31:05;;;;;;;3.72;3.03;;;;;37.20;96035.00;;;;8254009;28;20242;-72
2023/07/19 11:35:12;;;;;;;4.93;3.58;;;;;36.30;96034.00;;;;8254956;28;20210;-72
2023/07/19 11:39:16;;;;;;;8.00;3.70;;;;;36.50;96030.00;;;;8248544;28;20227;-73
2023/07/19 11:43:26;;;;;;;3.60;3.10;;;;;36.10;96033.00;;;;8238083;28;20987;-73
2023/07/19 11:47:31;;;;;;;3.67;3.10;;;;;35.20;96037.00;;;;8253428;28;20325;-73
2023/07/19 11:51:36;;;;;;;4.00;3.10;;;;;35.20;96024.00;;;;8255119;28;20656;-72
2023/07/19 11:55:40;;;;;;;6.55;3.55;;;;;36.00;96029.00;;;;8227086;28;20297;-72
2023/07/19 11:59:43;;;;;;;9.63;3.10;;;;;35.40;96018.00;;;;8254121;28;20333;-72
2023/07/19 12:03:47;;;;;;;5.50;3.55;;;;;35.80;96006.00;;;;8253324;28;20227;-72
2023/07/19 12:07:56;;;;;;;3.88;3.03;;;;;36.30;96012.00;;;;8252960;28;20222;-72
2023/07/19 12:11:59;;;;;;;3.67;2.83;;;;;36.20;96016.00;;;;8254746;28;20668;-71
2023/07/19 12:16:04;;;;;;;5.80;3.25;;;;;36.40;96018.00;;;;8254455;28;20221;-72
2023/07/19 12:20:12;;;;;;;4.13;3.03;;;;;37.00;96008.00;;;;8252595;28;20225;-71
2023/07/19 12:24:17;;;;;;;5.57;2.85;;;;;37.20;96000.00;;;;8253999;28;20305;-72
2023/07/19 12:28:23;;;;;;;3.47;2.65;;;;;37.60;96014.00;;;;8235109;28;20377;-71
2023/07/19 12:32:27;;;;;;;3.55;3.03;;;;;37.10;96005.00;;;;8245609;28;20250;-72
2023/07/19 12:36:34;;;;;;;3.63;2.80;;;;;36.90;95993.00;;;;8252194;28;20207;-72
2023/07/19 12:40:39;;;;;;;4.20;3.17;;;;;36.60;95990.00;;;;8246371;28;20833;-71
2023/07/19 12:44:46;;;;;;;6.43;3.40;;;;;36.20;95992.00;;;;8252741;28;20199;-71
2023/07/19 12:48:49;;;;;;;5.30;3.30;;;;;35.60;95999.00;;;;8251787;28;20348;-72
2023/07/19 12:52:55;;;;;;;7.13;3.30;;;;;35.50;95984.00;;;;8234560;28;20242;-70
2023/07/19 12:57:02;;;;;;;3.63;3.28;;;;;35.30;95973.00;;;;8252965;28;20226;-71
2023/07/19 13:01:05;;;;;;;5.22;2.97;;;;;35.00;95981.00;;;;8252395;28;20233;-71
2023/07/19 13:05:11;;;;;;;3.60;2.53;;;;;34.60;95967.00;;;;8252175;28;20213;-71
2023/07/19 13:09:18;;;;;;;4.15;2.80;;;;;34.20;95965.00;;;;8251977;28;20225;-71
2023/07/19 13:13:22;;;;;;;3.95;2.67;;;;;34.20;95979.00;;;;8249850;28;20278;-71
2023/07/19 13:17:28;;;;;;;3.35;2.92;;;;;34.10;95972.00;;;;8246581;28;20218;-72
2023/07/19 13:21:31;;;;;;;3.60;3.10;;;;;34.30;95963.00;;;;8251974;28;20290;-73
2023/07/19 13:25:39;;;;;;;7.53;3.28;;;;;34.70;95967.00;;;;8249572;28;20222;-71
2023/07/19 13:29:45;;;;;;;4.25;3.13;;;;;34.90;95965.00;;;;8250567;28;20314;-72
2023/07/19 13:33:51;;;;;;;7.45;3.00;;;;;34.60;95978.00;;;;8249217;28;20290;-72
2023/07/19 13:37:57;;;;;;;5.25;2.85;;;;;35.10;95971.00;;;;8251375;28;20273;-71
2023/07/19 13:42:05;;;;;;;4.85;2.60;;;;;35.60;95965.00;;;;8252079;28;20261;-73
2023/07/19 13:46:18;;;;;;;8.73;3.13;;;;;36.00;95954.00;;;;8251998;28;20723;-72
2023/07/19 13:50:25;;;;;;;4.90;2.60;;;;;36.30;95953.00;;;;8251349;28;20387;-71
2023/07/19 13:54:29;;;;;;;2.72;2.53;;;;;36.90;95951.00;;;;8255260;28;20242;-73
2023/07/19 13:58:33;;;;;;;4.68;2.50;;;;;36.30;95946.00;;;;8257359;28;20239;-72
2023/07/19 14:02:37;;;;;;;4.53;2.55;;;;;36.00;95940.00;;;;8258073;28;20317;-70
2023/07/19 14:06:41;;;;;;;4.85;2.63;;;;;35.50;95943.00;;;;8237718;28;20899;-71
2023/07/19 14:10:46;;;;;;;4.10;2.33;;;;;36.10;95945.00;;;;8251731;28;20223;-71
2023/07/19 14:14:51;;;;;;;3.10;2.33;;;;;35.20;95942.00;;;;8257641;28;20237;-73
2023/07/19 14:18:54;;;;;;;2.92;2.50;;;;;34.00;95941.00;;;;8238873;28;20644;-70
2023/07/19 14:22:57;;;;;;;6.93;2.72;;;;;33.50;95927.00;;;;8257048;28;20223;-72
2023/07/19 14:27:03;;;;;;;2.53;2.30;;;;;32.90;95929.00;;;;8256348;28;20199;-72
2023/07/19 14:31:08;;;;;;;6.25;2.67;;;;;33.60;95921.00;;;;8257136;28;20317;-69
2023/07/19 14:35:13;;;;;;;2.63;2.42;;;;;34.30;95930.00;;;;8256945;28;20207;-74
2023/07/19 14:39:20;;;;;;;3.80;2.60;;;;;33.70;95935.00;;;;8257462;28;20213;-73
2023/07/19 14:43:23;;;;;;;2.58;2.38;;;;;32.90;95939.00;;;;8249562;28;20285;-69
2023/07/19 14:47:34;;;;;;;3.35;2.58;;;;;32.60;95931.00;;;;8256534;28;20222;-73
2023/07/19 14:51:40;;;;;;;6.43;2.33;;;;;33.20;95935.00;;;;8256117;28;20271;-71
2023/07/19 14:55:44;;;;;;;3.35;2.65;;;;;34.20;95937.00;;;;8256057;28;20294;-72
2023/07/19 14:59:50;;;;;;;3.42;2.35;;;;;34.80;95931.00;;;;8257551;28;20249;-74
2023/07/19 15:04:19;;;;;;;7.95;2.50;;;;;35.30;95926.00;;;;8256516;28;20281;-68
2023/07/19 15:08:29;;;;;;;5.50;2.55;;;;;35.40;95915.00;;;;8248465;28;20219;-70
2023/07/19 15:12:35;;;;;;;2.72;2.53;;;;;35.40;95920.00;;;;8252248;28;20243;-72
2023/07/19 15:16:38;;;;;;;4.38;2.40;;;;;34.40;95912.00;;;;8256297;28;20725;-71
2023/07/19 15:20:44;;;;;;;3.38;2.10;;;;;33.40;95896.00;;;;8256452;28;20242;-69
2023/07/19 15:24:48;;;;;;;5.10;2.47;;;;;32.70;95902.00;;;;8252987;28;20285;-71
2023/07/19 15:28:58;;;;;;;2.92;2.20;;;;;32.20;95905.00;;;;8256432;28;20278;-70
2023/07/19 15:33:02;;;;;;;4.18;2.50;;;;;31.80;95898.00;;;;8255977;28;20234;-69
2023/07/19 15:37:08;;;;;;;4.07;2.55;;;;;31.50;95901.00;;;;8253174;28;20202;-69
2023/07/19 15:41:14;;;;;;;3.55;2.90;;;;;31.20;95910.00;;;;8254667;28;20294;-70
2023/07/19 15:45:23;;;;;;;3.38;2.50;;;;;30.80;95920.00;;;;8256675;28;20734;-73
2023/07/19 15:49:26;;;;;;;3.03;2.72;;;;;30.40;95927.00;;;;8251747;28;20283;-73
2023/07/19 15:53:34;;;;;;;3.85;2.45;;;;;30.10;95986.00;;;;8254055;28;20302;-69
2023/07/19 15:57:39;;;;;;;11.48;2.78;;;;;28.10;95965.00;;;;8254782;28;20242;-69
2023/07/19 16:01:48;;;;;;;6.30;3.22;;;;;26.80;95964.00;;;;8255338;28;20277;-70
2023/07/19 16:05:51;;;;;;;5.20;3.35;;;;;27.10;95955.00;;;;8255893;28;20810;-70
2023/07/19 16:09:59;;;;;;;7.05;2.90;;;;;27.60;95942.00;;;;8254644;28;20764;-69
2023/07/19 16:14:02;;;;;;;7.45;2.72;;;;;28.20;95952.00;;;;8252198;28;20209;-70
2023/07/19 16:18:09;;;;;;;3.47;2.90;;;;;28.70;95941.00;;;;8254203;28;20672;-70
2023/07/19 16:22:18;;;;;;;5.07;3.15;;;;;29.20;95943.00;;;;8255804;28;20214;-73
2023/07/19 16:26:23;;;;;;;5.88;3.35;;;;;29.30;95937.00;;;;8254909;28;20744;-69
2023/07/19 16:30:27;;;;;;;7.47;2.70;;;;;29.50;95932.00;;;;8254326;28;20238;-69
2023/07/19 16:34:33;;;;;;;3.97;2.67;;;;;29.70;95920.00;;;;8253811;28;20207;-69
2023/07/19 16:38:38;;;;;;;5.75;3.00;;;;;29.60;95917.00;;;;8254188;28;20656;-67
2023/07/19 16:42:47;;;;;;;3.95;2.60;;;;;29.90;95910.00;;;;8253944;28;20656;-70
2023/07/19 16:46:50;;;;;;;4.18;2.75;;;;;30.10;95918.00;;;;8254255;28;20209;-70
2023/07/19 16:50:56;;;;;;;2.95;2.70;;;;;30.60;95913.00;;;;8249427;28;20233;-68
2023/07/19 16:54:59;;;;;;;5.47;2.40;;;;;30.90;95909.00;;;;8250011;28;20289;-71
2023/07/19 16:59:10;;;;;;;6.57;2.40;;;;;31.00;95902.00;;;;8250067;28;20234;-72
2023/07/19 17:03:14;;;;;;;4.53;2.65;;;;;31.20;95906.00;;;;8250583;28;20238;-70
2023/07/19 17:07:17;;;;;;;3.25;2.17;;;;;30.70;95904.00;;;;8246950;28;20217;-71
2023/07/19 17:11:23;;;;;;;3.33;2.20;;;;;30.00;95902.00;;;;8252229;28;20234;-75
2023/07/19 17:15:29;;;;;;;6.68;2.70;;;;;29.60;95905.00;;;;8254177;28;20237;-67
2023/07/19 17:19:33;;;;;;;2.47;2.10;;;;;29.50;95907.00;;;;8240746;28;20715;-70
2023/07/19 17:23:37;;;;;;;2.58;2.25;;;;;29.40;95907.00;;;;8236460;28;20234;-70
2023/07/19 17:27:40;;;;;;;4.28;2.50;;;;;29.70;95908.00;;;;8246336;28;20207;-69
2023/07/19 17:31:47;;;;;;;2.65;2.33;;;;;30.40;95916.00;;;;8256455;28;20240;-69
2023/07/19 17:35:50;;;;;;;5.15;2.78;;;;;30.70;95924.00;;;;8255570;28;20664;-69
2023/07/19 17:39:56;;;;;;;4.03;2.58;;;;;30.60;95933.00;;;;8259393;28;20228;-71
2023/07/19 17:43:59;;;;;;;3.17;2.50;;;;;30.30;95934.00;;;;8259581;28;20210;-71
2023/07/19 17:48:07;;;;;;;6.57;2.70;;;;;30.40;95941.00;;;;8258089;28;20234;-69
2023/07/19 17:52:11;;;;;;;5.22;2.30;;;;;30.60;95931.00;;;;8251425;28;20241;-70
2023/07/19 17:56:19;;;;;;;3.05;2.50;;;;;30.50;95935.00;;;;8248380;28;20996;-68
2023/07/19 18:00:24;;;;;;;5.03;2.38;;;;;30.40;95941.00;;;;8258692;28;20213;-70
2023/07/19 18:04:30;;;;;;;3.35;2.65;;;;;30.50;95936.00;;;;8246842;28;20234;-70
2023/07/19 18:08:34;;;;;;;3.83;2.22;;;;;29.80;95949.00;;;;8247820;28;20727;-71
2023/07/19 18:12:38;;;;;;;5.10;2.47;;;;;28.90;95948.00;;;;8257271;28;20235;-68
2023/07/19 18:16:43;;;;;;;2.75;2.40;;;;;28.10;95945.00;;;;8242103;28;20985;-68
2023/07/19 18:20:51;;;;;;;4.82;2.55;;;;;27.40;95939.00;;;;8257934;28;20633;-67
2023/07/19 18:24:57;;;;;;;3.03;2.13;;;;;26.90;95936.00;;;;8257928;28;20660;-69
2023/07/19 18:29:00;;;;;;;2.50;2.30;;;;;26.60;95927.00;;;;8241044;28;20235;-72
2023/07/19 18:33:04;;;;;;;3.97;2.38;;;;;26.30;95924.00;;;;8256287;28;20244;-68
2023/07/19 18:37:11;;;;;;;2.58;2.10;;;;;26.00;95922.00;;;;8257103;28;20237;-69
2023/07/19 18:41:14;;;;;;;2.60;2.22;;;;;25.90;95945.00;;;;8256151;28;20229;-72
2023/07/19 18:45:19;;;;;;;2.28;2.03;;;;;25.70;95942.00;;;;8258430;28;20207;-68
2023/07/19 18:49:22;;;;;;;3.50;2.40;;;;;25.60;95940.00;;;;8256486;28;20262;-68
2023/07/19 18:53:28;;;;;;;4.00;2.28;;;;;25.60;95957.00;;;;8257158;28;20412;-67
2023/07/19 18:57:33;;;;;;;2.25;2.05;;;;;25.60;95985.00;;;;8237265;28;20212;-70
2023/07/19 19:01:38;;;;;;;15.48;2.85;;;;;24.30;96047.00;;;;8256551;28;20266;-66
2023/07/19 19:05:43;;;;;;;10.27;3.10;;;;;21.50;96044.00;;;;8258130;28;20293;-63
2023/07/19 19:09:58;;;;;;;7.78;3.33;;;;;20.20;96018.00;;;;8255485;28;20553;-70
2023/07/19 19:14:02;;;;;;;11.80;3.38;;;;;19.30;96025.00;;;;8256614;28;20810;-69
2023/07/19 19:18:05;;;;;;;10.73;3.50;;;;;18.70;96010.00;;;;8256542;28;20213;-71
2023/07/19 19:22:09;;;;;;;8.55;3.35;;;;;18.30;96002.00;;;;8254609;28;20663;-70
2023/07/19 19:26:14;;;;;;;7.72;3.30;;;;;18.10;96004.00;;;;8256740;28;20317;-71
2023/07/19 19:30:17;;;;;;;6.35;2.95;;;;;18.00;95998.00;;;;8253263;28;20234;-71
2023/07/19 19:34:20;;;;;;;7.13;3.15;;;;;18.10;95989.00;;;;8256860;28;20203;-73
2023/07/19 19:38:33;;;;;;;7.45;3.40;;;;;18.10;96011.00;;;;8255861;28;20655;-73
2023/07/19 19:42:37;;;;;;;6.50;3.35;;;;;18.10;96031.00;;;;8247856;28;20377;-74
2023/07/19 19:46:43;;;;;;;5.07;3.30;;;;;18.10;96026.00;;;;8255890;28;20203;-74
2023/07/19 19:50:49;;;;;;;7.25;3.47;;;;;18.10;96020.00;;;;8254831;28;20230;-74
2023/07/19 19:54:52;;;;;;;10.80;3.42;;;;;18.10;96024.00;;;;8255632;28;20707;-74
2023/07/19 19:58:56;;;;;;;5.72;3.72;;;;;18.20;96026.00;;;;8252756;28;20203;-74
2023/07/19 20:03:02;;;;;;;5.70;3.80;;;;;18.40;96036.00;;;;8237054;28;20862;-75
2023/07/19 20:07:08;;;;;;;11.95;4.03;;;;;18.40;96026.00;;;;8255306;28;20203;-74
2023/07/19 20:11:12;;;;;;;7.05;3.67;;;;;18.50;96032.00;;;;8252294;28;20940;-74
2023/07/19 20:15:17;;;;;;;11.90;4.32;;;;;18.50;96014.00;;;;8255027;28;20202;-74
2023/07/19 20:19:20;;;;;;;17.63;4.75;;;;;18.40;96011.00;;;;8236107;28;20293;-74
2023/07/19 20:23:26;;;;;;;10.77;4.63;;;;;18.30;96004.00;;;;8252755;28;20330;-74